sensor_id;sensor_type;location;lat;lon;timestamp;pressure;altitude;pressure_sealevel;temperature;humidity
14117;BME280;7137;51.436;6.544;2023-08-06T00:02:18;100017.00;;;17.17;100.00
14117;BME280;7137;51.436;6.544;2023-08-06T00:05:20;100015.97;;;17.19;100.00
14117;BME280;7137;51.436;6.544;2023-08-06T00:08:22;100014.47;;;17.15;99.24
14117;BME280;7137;51.436;6.544;2023-08-06T00:11:23;100003.19;;;17.13;100.00
14117;BME280;7137;51.436;6.544;2023-08-06T00:14:25;100004.22;;;17.24;99.37
14117;BME280;7137;51.436;6.544;2023-08-06T00:17:28;100000.19;;;17.31;100.00
14117;BME280;7137;51.436;6.544;2023-08-06T00:20:29;99993.03;;;17.33;99.09
14117;BME280;7137;51.436;6.544;2023-08-06T00:23:31;99996.28;;;17.36;98.22
14117;BME280;7137;51.436;6.544;2023-08-06T00:26:33;99989.72;;;17.42;98.08
14117;BME280;7137;51.436;6.544;2023-08-06T00:29:35;99990.28;;;17.34;98.18
14117;BME280;7137;51.436;6.544;2023-08-06T00:32:38;99988.91;;;17.29;98.27
14117;BME280;7137;51.436;6.544;2023-08-06T00:35:40;99989.94;;;17.39;98.80
14117;BME280;7137;51.436;6.544;2023-08-06T00:38:42;99979.78;;;17.45;97.61
14117;BME280;7137;51.436;6.544;2023-08-06T00:41:43;99980.91;;;17.54;97.89
14117;BME280;7137;51.436;6.544;2023-08-06T00:44:45;99974.66;;;17.55;98.43
14117;BME280;7137;51.436;6.544;2023-08-06T00:47:48;99984.13;;;17.46;97.02
14117;BME280;7137;51.436;6.544;2023-08-06T00:50:50;99982.63;;;17.42;97.87
14117;BME280;7137;51.436;6.544;2023-08-06T00:53:52;99977.56;;;17.39;97.41
14117;BME280;7137;51.436;6.544;2023-08-06T00:56:54;99975.66;;;17.41;98.00
14117;BME280;7137;51.436;6.544;2023-08-06T00:59:56;99969.22;;;17.45;97.33
14117;BME280;7137;51.436;6.544;2023-08-06T01:02:59;99978.91;;;17.45;96.51
14117;BME280;7137;51.436;6.544;2023-08-06T01:06:01;99973.44;;;17.48;96.65
14117;BME280;7137;51.436;6.544;2023-08-06T01:09:09;99975.78;;;17.40;97.30
14117;BME280;7137;51.436;6.544;2023-08-06T01:12:20;99970.84;;;17.35;96.16
14117;BME280;7137;51.436;6.544;2023-08-06T01:15:29;99977.06;;;17.34;97.46
14117;BME280;7137;51.436;6.544;2023-08-06T01:18:35;99967.97;;;17.38;97.72
14117;BME280;7137;51.436;6.544;2023-08-06T01:21:40;99967.50;;;17.44;97.12
14117;BME280;7137;51.436;6.544;2023-08-06T01:24:47;99963.84;;;17.47;97.36
14117;BME280;7137;51.436;6.544;2023-08-06T01:27:49;99967.31;;;17.47;95.77
14117;BME280;7137;51.436;6.544;2023-08-06T01:30:54;99968.44;;;17.56;96.72
14117;BME280;7137;51.436;6.544;2023-08-06T01:33:58;99972.88;;;17.56;95.59
14117;BME280;7137;51.436;6.544;2023-08-06T01:37:03;99969.00;;;17.48;94.99
14117;BME280;7137;51.436;6.544;2023-08-06T01:40:06;99967.44;;;17.46;94.84
14117;BME280;7137;51.436;6.544;2023-08-06T01:43:08;99971.69;;;17.36;94.49
14117;BME280;7137;51.436;6.544;2023-08-06T01:46:10;99965.56;;;17.35;94.02
14117;BME280;7137;51.436;6.544;2023-08-06T01:49:12;99968.09;;;17.37;94.81
14117;BME280;7137;51.436;6.544;2023-08-06T01:52:15;99962.34;;;17.43;95.12
14117;BME280;7137;51.436;6.544;2023-08-06T01:55:16;99964.50;;;17.38;95.56
14117;BME280;7137;51.436;6.544;2023-08-06T01:58:18;99957.53;;;17.37;96.37
14117;BME280;7137;51.436;6.544;2023-08-06T02:01:20;99956.44;;;17.39;96.25
14117;BME280;7137;51.436;6.544;2023-08-06T02:04:21;99958.47;;;17.36;97.90
14117;BME280;7137;51.436;6.544;2023-08-06T02:07:24;99953.09;;;17.37;98.90
14117;BME280;7137;51.436;6.544;2023-08-06T02:10:26;99948.03;;;17.34;98.49
14117;BME280;7137;51.436;6.544;2023-08-06T02:13:27;99947.47;;;17.42;99.76
14117;BME280;7137;51.436;6.544;2023-08-06T02:16:29;99949.59;;;17.37;100.00
14117;BME280;7137;51.436;6.544;2023-08-06T02:19:31;99946.00;;;17.38;99.58
14117;BME280;7137;51.436;6.544;2023-08-06T02:22:33;99939.16;;;17.35;97.90
14117;BME280;7137;51.436;6.544;2023-08-06T02:25:36;99940.41;;;17.30;98.00
14117;BME280;7137;51.436;6.544;2023-08-06T02:28:38;99942.94;;;17.31;98.67
14117;BME280;7137;51.436;6.544;2023-08-06T02:31:39;99940.22;;;17.33;98.38
14117;BME280;7137;51.436;6.544;2023-08-06T02:34:41;99941.25;;;17.30;98.34
14117;BME280;7137;51.436;6.544;2023-08-06T02:37:45;99943.38;;;17.38;99.05
14117;BME280;7137;51.436;6.544;2023-08-06T02:40:46;99935.56;;;17.36;97.68
14117;BME280;7137;51.436;6.544;2023-08-06T02:43:48;99926.56;;;17.39;98.24
14117;BME280;7137;51.436;6.544;2023-08-06T02:46:49;99927.28;;;17.41;98.19
14117;BME280;7137;51.436;6.544;2023-08-06T02:49:51;99920.09;;;17.43;97.44
14117;BME280;7137;51.436;6.544;2023-08-06T02:52:54;99918.34;;;17.31;98.72
14117;BME280;7137;51.436;6.544;2023-08-06T02:55:55;99915.41;;;17.35;98.32
14117;BME280;7137;51.436;6.544;2023-08-06T02:58:57;99917.41;;;17.32;97.99
14117;BME280;7137;51.436;6.544;2023-08-06T03:01:58;99917.72;;;17.27;97.66
14117;BME280;7137;51.436;6.544;2023-08-06T03:05:00;99913.03;;;17.19;98.93
14117;BME280;7137;51.436;6.544;2023-08-06T03:08:03;99909.44;;;17.20;97.79
14117;BME280;7137;51.436;6.544;2023-08-06T03:11:05;99908.38;;;17.10;98.54
14117;BME280;7137;51.436;6.544;2023-08-06T03:14:06;99904.69;;;17.13;98.54
14117;BME280;7137;51.436;6.544;2023-08-06T03:17:08;99902.28;;;17.10;100.00
14117;BME280;7137;51.436;6.544;2023-08-06T03:20:10;99905.22;;;17.18;99.73
14117;BME280;7137;51.436;6.544;2023-08-06T03:23:13;99898.88;;;17.20;98.26
14117;BME280;7137;51.436;6.544;2023-08-06T03:26:14;99899.28;;;17.14;98.92
14117;BME280;7137;51.436;6.544;2023-08-06T03:29:16;99909.78;;;17.03;99.12
14117;BME280;7137;51.436;6.544;2023-08-06T03:32:18;99910.44;;;16.94;100.00
14117;BME280;7137;51.436;6.544;2023-08-06T03:35:19;99904.22;;;16.95;100.00
14117;BME280;7137;51.436;6.544;2023-08-06T03:38:22;99903.38;;;16.82;100.00
14117;BME280;7137;51.436;6.544;2023-08-06T03:41:24;99900.75;;;16.82;100.00
14117;BME280;7137;51.436;6.544;2023-08-06T03:44:26;99904.00;;;16.85;100.00
14117;BME280;7137;51.436;6.544;2023-08-06T03:47:28;99901.47;;;16.84;100.00
14117;BME280;7137;51.436;6.544;2023-08-06T03:50:30;99897.25;;;16.81;100.00
14117;BME280;7137;51.436;6.544;2023-08-06T03:53:33;99898.63;;;16.74;100.00
14117;BME280;7137;51.436;6.544;2023-08-06T03:56:34;99896.31;;;16.70;100.00
14117;BME280;7137;51.436;6.544;2023-08-06T03:59:36;99901.38;;;16.73;100.00
14117;BME280;7137;51.436;6.544;2023-08-06T04:02:37;99896.31;;;16.70;100.00
14117;BME280;7137;51.436;6.544;2023-08-06T04:05:39;99900.03;;;16.67;100.00
14117;BME280;7137;51.436;6.544;2023-08-06T04:08:42;99896.94;;;16.60;100.00
14117;BME280;7137;51.436;6.544;2023-08-06T04:11:45;99906.22;;;16.53;100.00
14117;BME280;7137;51.436;6.544;2023-08-06T04:14:46;99899.50;;;16.49;100.00
14117;BME280;7137;51.436;6.544;2023-08-06T04:17:48;99896.63;;;16.52;100.00
14117;BME280;7137;51.436;6.544;2023-08-06T04:20:49;99894.84;;;16.53;100.00
14117;BME280;7137;51.436;6.544;2023-08-06T04:23:54;99895.16;;;16.61;100.00
14117;BME280;7137;51.436;6.544;2023-08-06T04:26:55;99897.28;;;16.69;100.00
14117;BME280;7137;51.436;6.544;2023-08-06T04:29:57;99897.78;;;16.74;100.00
14117;BME280;7137;51.436;6.544;2023-08-06T04:32:58;99894.84;;;16.78;100.00
14117;BME280;7137;51.436;6.544;2023-08-06T04:36:00;99899.56;;;16.86;100.00
14117;BME280;7137;51.436;6.544;2023-08-06T04:39:03;99901.91;;;16.90;100.00
14117;BME280;7137;51.436;6.544;2023-08-06T04:42:05;99908.78;;;16.80;100.00
14117;BME280;7137;51.436;6.544;2023-08-06T04:45:08;99905.69;;;16.86;100.00
14117;BME280;7137;51.436;6.544;2023-08-06T04:48:09;99906.97;;;16.94;100.00
14117;BME280;7137;51.436;6.544;2023-08-06T04:51:11;99907.69;;;16.96;100.00
14117;BME280;7137;51.436;6.544;2023-08-06T04:54:14;99912.22;;;17.06;100.00
14117;BME280;7137;51.436;6.544;2023-08-06T04:57:15;99911.53;;;17.15;100.00
14117;BME280;7137;51.436;6.544;2023-08-06T05:00:17;99913.03;;;17.19;100.00
14117;BME280;7137;51.436;6.544;2023-08-06T05:03:19;99912.22;;;17.30;100.00
14117;BME280;7137;51.436;6.544;2023-08-06T05:06:20;99913.47;;;17.37;99.45
14117;BME280;7137;51.436;6.544;2023-08-06T05:09:23;99920.50;;;17.49;98.82
14117;BME280;7137;51.436;6.544;2023-08-06T05:12:25;99919.63;;;17.62;96.91
14117;BME280;7137;51.436;6.544;2023-08-06T05:15:26;99910.50;;;17.66;96.34
14117;BME280;7137;51.436;6.544;2023-08-06T05:18:28;99920.09;;;17.79;96.91
14117;BME280;7137;51.436;6.544;2023-08-06T05:21:30;99919.78;;;17.95;96.46
14117;BME280;7137;51.436;6.544;2023-08-06T05:24:34;99921.31;;;18.22;94.01
14117;BME280;7137;51.436;6.544;2023-08-06T05:27:35;99917.13;;;18.42;93.65
14117;BME280;7137;51.436;6.544;2023-08-06T05:30:39;99919.09;;;18.62;93.18
14117;BME280;7137;51.436;6.544;2023-08-06T05:33:41;99925.13;;;18.64;91.07
14117;BME280;7137;51.436;6.544;2023-08-06T05:36:43;99929.94;;;18.81;89.85
14117;BME280;7137;51.436;6.544;2023-08-06T05:39:46;99934.78;;;18.76;90.27
14117;BME280;7137;51.436;6.544;2023-08-06T05:42:48;99942.59;;;18.78;90.76
14117;BME280;7137;51.436;6.544;2023-08-06T05:45:50;99940.28;;;18.84;89.42
14117;BME280;7137;51.436;6.544;2023-08-06T05:48:51;99942.22;;;18.82;87.60
14117;BME280;7137;51.436;6.544;2023-08-06T05:51:53;99938.47;;;18.96;89.85
14117;BME280;7137;51.436;6.544;2023-08-06T05:54:56;99949.56;;;19.01;87.91
14117;BME280;7137;51.436;6.544;2023-08-06T05:57:57;99948.47;;;18.92;87.33
14117;BME280;7137;51.436;6.544;2023-08-06T06:00:59;99952.09;;;18.91;87.13
14117;BME280;7137;51.436;6.544;2023-08-06T06:04:00;99952.09;;;19.03;87.05
14117;BME280;7137;51.436;6.544;2023-08-06T06:07:02;99952.31;;;19.22;86.53
14117;BME280;7137;51.436;6.544;2023-08-06T06:10:07;99955.75;;;19.56;86.80
14117;BME280;7137;51.436;6.544;2023-08-06T06:13:08;99958.38;;;19.67;85.12
14117;BME280;7137;51.436;6.544;2023-08-06T06:16:10;99964.63;;;19.77;82.61
14117;BME280;7137;51.436;6.544;2023-08-06T06:19:12;99969.78;;;19.90;82.87
14117;BME280;7137;51.436;6.544;2023-08-06T06:22:14;99969.66;;;20.12;82.69
14117;BME280;7137;51.436;6.544;2023-08-06T06:25:17;99972.66;;;20.19;80.54
14117;BME280;7137;51.436;6.544;2023-08-06T06:28:19;99979.31;;;20.45;81.46
14117;BME280;7137;51.436;6.544;2023-08-06T06:31:20;99986.03;;;21.72;76.53
14117;BME280;7137;51.436;6.544;2023-08-06T06:34:22;99988.66;;;22.88;69.70
14117;BME280;7137;51.436;6.544;2023-08-06T06:37:23;99990.69;;;23.68;65.73
14117;BME280;7137;51.436;6.544;2023-08-06T06:40:26;99999.69;;;24.20;62.72
14117;BME280;7137;51.436;6.544;2023-08-06T06:43:28;99997.75;;;23.50;64.36
14117;BME280;7137;51.436;6.544;2023-08-06T06:46:29;99988.72;;;23.70;65.19
14117;BME280;7137;51.436;6.544;2023-08-06T06:49:31;100004.13;;;24.47;61.30
14117;BME280;7137;51.436;6.544;2023-08-06T06:52:33;99995.78;;;25.20;59.19
14117;BME280;7137;51.436;6.544;2023-08-06T06:55:36;100005.25;;;26.15;54.83
14117;BME280;7137;51.436;6.544;2023-08-06T06:58:37;100002.19;;;25.86;55.84
14117;BME280;7137;51.436;6.544;2023-08-06T07:01:41;99995.75;;;26.61;53.74
14117;BME280;7137;51.436;6.544;2023-08-06T07:04:42;100007.81;;;31.95;40.87
14117;BME280;7137;51.436;6.544;2023-08-06T07:07:44;100010.72;;;33.77;36.70
14117;BME280;7137;51.436;6.544;2023-08-06T07:10:47;100014.78;;;32.57;38.60
14117;BME280;7137;51.436;6.544;2023-08-06T07:13:49;100018.97;;;30.47;41.83
14117;BME280;7137;51.436;6.544;2023-08-06T07:16:51;100014.63;;;28.93;44.47
14117;BME280;7137;51.436;6.544;2023-08-06T07:19:52;100020.19;;;27.46;49.09
14117;BME280;7137;51.436;6.544;2023-08-06T07:22:54;100010.59;;;26.07;52.81
14117;BME280;7137;51.436;6.544;2023-08-06T07:25:57;100006.88;;;25.41;55.01
14117;BME280;7137;51.436;6.544;2023-08-06T07:28:59;100001.47;;;24.12;59.24
14117;BME280;7137;51.436;6.544;2023-08-06T07:32:01;100006.28;;;24.08;61.02
14117;BME280;7137;51.436;6.544;2023-08-06T07:35:02;100005.38;;;22.51;65.60
14117;BME280;7137;51.436;6.544;2023-08-06T07:38:04;100003.91;;;21.60;70.07
14117;BME280;7137;51.436;6.544;2023-08-06T07:41:07;99998.66;;;21.09;71.90
14117;BME280;7137;51.436;6.544;2023-08-06T07:44:09;100001.63;;;20.85;72.69
14117;BME280;7137;51.436;6.544;2023-08-06T07:47:11;100001.81;;;20.51;74.85
14117;BME280;7137;51.436;6.544;2023-08-06T07:50:12;99996.38;;;20.53;76.46
14117;BME280;7137;51.436;6.544;2023-08-06T07:53:14;99998.28;;;19.98;77.28
14117;BME280;7137;51.436;6.544;2023-08-06T07:56:17;99990.13;;;20.22;78.36
14117;BME280;7137;51.436;6.544;2023-08-06T07:59:18;99994.00;;;20.38;75.24
14117;BME280;7137;51.436;6.544;2023-08-06T08:02:20;99998.00;;;20.12;75.67
14117;BME280;7137;51.436;6.544;2023-08-06T08:05:22;100004.75;;;20.48;73.96
14117;BME280;7137;51.436;6.544;2023-08-06T08:08:24;100001.22;;;19.83;77.22
14117;BME280;7137;51.436;6.544;2023-08-06T08:11:27;100002.13;;;21.30;71.53
14117;BME280;7137;51.436;6.544;2023-08-06T08:14:28;100017.19;;;22.39;66.45
14117;BME280;7137;51.436;6.544;2023-08-06T08:17:35;100012.84;;;24.75;58.87
14117;BME280;7137;51.436;6.544;2023-08-06T08:20:37;100017.34;;;22.94;63.35
14117;BME280;7137;51.436;6.544;2023-08-06T08:23:38;100015.22;;;23.07;62.93
14117;BME280;7137;51.436;6.544;2023-08-06T08:26:43;100020.00;;;24.31;59.12
14117;BME280;7137;51.436;6.544;2023-08-06T08:29:45;100020.84;;;21.59;68.72
14117;BME280;7137;51.436;6.544;2023-08-06T08:32:47;100023.75;;;20.53;73.45
14117;BME280;7137;51.436;6.544;2023-08-06T08:35:48;100025.78;;;20.29;74.18
14117;BME280;7137;51.436;6.544;2023-08-06T08:38:50;100020.78;;;20.47;74.48
14117;BME280;7137;51.436;6.544;2023-08-06T08:41:55;100014.38;;;20.17;73.25
14117;BME280;7137;51.436;6.544;2023-08-06T08:44:58;100010.63;;;20.52;74.13
14117;BME280;7137;51.436;6.544;2023-08-06T08:48:00;100019.56;;;20.51;73.84
14117;BME280;7137;51.436;6.544;2023-08-06T08:51:03;100009.91;;;23.89;62.25
14117;BME280;7137;51.436;6.544;2023-08-06T08:54:07;100032.31;;;23.14;62.49
14117;BME280;7137;51.436;6.544;2023-08-06T08:57:11;100023.97;;;21.33;69.08
14117;BME280;7137;51.436;6.544;2023-08-06T09:00:13;100030.44;;;21.20;71.69
14117;BME280;7137;51.436;6.544;2023-08-06T09:03:14;100032.06;;;21.11;71.90
14117;BME280;7137;51.436;6.544;2023-08-06T09:06:18;100033.94;;;20.48;74.62
14117;BME280;7137;51.436;6.544;2023-08-06T09:09:24;100033.97;;;20.05;76.56
14117;BME280;7137;51.436;6.544;2023-08-06T09:12:28;100034.84;;;19.83;79.83
14117;BME280;7137;51.436;6.544;2023-08-06T09:15:30;100038.84;;;19.77;77.83
14117;BME280;7137;51.436;6.544;2023-08-06T09:18:31;100039.81;;;19.76;78.97
14117;BME280;7137;51.436;6.544;2023-08-06T09:21:36;100042.66;;;19.96;78.63
14117;BME280;7137;51.436;6.544;2023-08-06T09:24:38;100043.28;;;19.88;78.03
14117;BME280;7137;51.436;6.544;2023-08-06T09:27:46;100047.44;;;19.59;77.83
14117;BME280;7137;51.436;6.544;2023-08-06T09:30:47;100046.94;;;19.65;79.02
14117;BME280;7137;51.436;6.544;2023-08-06T09:33:49;100053.88;;;19.99;78.19
14117;BME280;7137;51.436;6.544;2023-08-06T09:36:51;100059.84;;;20.77;76.07
14117;BME280;7137;51.436;6.544;2023-08-06T09:39:53;100061.03;;;21.14;73.76
14117;BME280;7137;51.436;6.544;2023-08-06T09:42:58;100060.50;;;21.20;72.55
14117;BME280;7137;51.436;6.544;2023-08-06T09:45:59;100057.00;;;21.20;72.65
14117;BME280;7137;51.436;6.544;2023-08-06T09:49:01;100063.81;;;20.50;74.70
14117;BME280;7137;51.436;6.544;2023-08-06T09:52:05;100060.03;;;20.32;75.40
14117;BME280;7137;51.436;6.544;2023-08-06T09:55:07;100060.84;;;20.00;77.33
14117;BME280;7137;51.436;6.544;2023-08-06T09:58:11;100071.34;;;19.12;81.86
14117;BME280;7137;51.436;6.544;2023-08-06T10:01:12;100077.03;;;19.19;83.35
14117;BME280;7137;51.436;6.544;2023-08-06T10:04:15;100074.31;;;18.85;84.74
14117;BME280;7137;51.436;6.544;2023-08-06T10:07:18;100079.72;;;18.49;85.78
14117;BME280;7137;51.436;6.544;2023-08-06T10:10:20;100087.03;;;17.85;92.28
14117;BME280;7137;51.436;6.544;2023-08-06T10:13:23;100087.50;;;17.66;98.29
14117;BME280;7137;51.436;6.544;2023-08-06T10:16:25;100099.03;;;17.27;100.00
14117;BME280;7137;51.436;6.544;2023-08-06T10:19:29;100093.97;;;17.24;100.00
14117;BME280;7137;51.436;6.544;2023-08-06T10:22:32;100106.03;;;16.62;100.00
14117;BME280;7137;51.436;6.544;2023-08-06T10:25:35;100105.94;;;16.37;100.00
14117;BME280;7137;51.436;6.544;2023-08-06T10:28:42;100103.69;;;16.04;100.00
14117;BME280;7137;51.436;6.544;2023-08-06T10:31:53;100110.53;;;15.80;100.00
14117;BME280;7137;51.436;6.544;2023-08-06T10:34:56;100123.97;;;15.61;100.00
14117;BME280;7137;51.436;6.544;2023-08-06T10:37:59;100129.69;;;15.53;100.00
14117;BME280;7137;51.436;6.544;2023-08-06T10:41:04;100131.47;;;15.53;100.00
14117;BME280;7137;51.436;6.544;2023-08-06T10:44:08;100128.66;;;15.56;100.00
14117;BME280;7137;51.436;6.544;2023-08-06T10:47:27;100133.53;;;15.48;100.00
14117;BME280;7137;51.436;6.544;2023-08-06T10:50:29;100138.03;;;15.45;100.00
14117;BME280;7137;51.436;6.544;2023-08-06T10:53:31;100148.31;;;15.50;100.00
14117;BME280;7137;51.436;6.544;2023-08-06T10:56:39;100143.69;;;15.54;100.00
14117;BME280;7137;51.436;6.544;2023-08-06T10:59:43;100141.06;;;15.54;100.00
14117;BME280;7137;51.436;6.544;2023-08-06T11:02:46;100151.50;;;15.55;100.00
14117;BME280;7137;51.436;6.544;2023-08-06T11:05:49;100144.91;;;15.48;100.00
14117;BME280;7137;51.436;6.544;2023-08-06T11:08:52;100152.88;;;15.47;100.00
14117;BME280;7137;51.436;6.544;2023-08-06T11:11:54;100160.69;;;15.34;100.00
14117;BME280;7137;51.436;6.544;2023-08-06T11:14:57;100163.16;;;15.37;100.00
14117;BME280;7137;51.436;6.544;2023-08-06T11:17:58;100170.66;;;15.29;100.00
14117;BME280;7137;51.436;6.544;2023-08-06T11:21:00;100169.72;;;15.30;100.00
14117;BME280;7137;51.436;6.544;2023-08-06T11:24:02;100184.31;;;15.35;100.00
14117;BME280;7137;51.436;6.544;2023-08-06T11:27:11;100172.06;;;15.20;100.00
14117;BME280;7137;51.436;6.544;2023-08-06T11:30:14;100183.06;;;15.27;100.00
14117;BME280;7137;51.436;6.544;2023-08-06T11:33:20;100188.09;;;15.15;100.00
14117;BME280;7137;51.436;6.544;2023-08-06T11:36:29;100187.38;;;15.28;100.00
14117;BME280;7137;51.436;6.544;2023-08-06T11:39:32;100189.81;;;15.31;100.00
14117;BME280;7137;51.436;6.544;2023-08-06T11:42:33;100198.66;;;15.30;100.00
14117;BME280;7137;51.436;6.544;2023-08-06T11:45:37;100204.00;;;15.28;100.00
14117;BME280;7137;51.436;6.544;2023-08-06T11:48:51;100198.41;;;15.34;100.00
14117;BME280;7137;51.436;6.544;2023-08-06T11:51:52;100204.97;;;15.41;100.00
14117;BME280;7137;51.436;6.544;2023-08-06T11:55:01;100211.41;;;15.52;100.00
14117;BME280;7137;51.436;6.544;2023-08-06T11:58:03;100213.44;;;15.62;100.00
14117;BME280;7137;51.436;6.544;2023-08-06T12:01:07;100212.38;;;15.65;100.00
14117;BME280;7137;51.436;6.544;2023-08-06T12:04:08;100215.88;;;15.65;100.00
14117;BME280;7137;51.436;6.544;2023-08-06T12:07:15;100231.28;;;15.71;100.00
14117;BME280;7137;51.436;6.544;2023-08-06T12:10:17;100227.34;;;15.79;100.00
14117;BME280;7137;51.436;6.544;2023-08-06T12:13:20;100230.72;;;15.81;100.00
14117;BME280;7137;51.436;6.544;2023-08-06T12:16:23;100232.78;;;15.76;100.00
14117;BME280;7137;51.436;6.544;2023-08-06T12:19:25;100230.72;;;15.95;100.00
14117;BME280;7137;51.436;6.544;2023-08-06T12:22:27;100232.22;;;15.85;100.00
14117;BME280;7137;51.436;6.544;2023-08-06T12:25:31;100238.03;;;15.76;100.00
14117;BME280;7137;51.436;6.544;2023-08-06T12:28:33;100236.00;;;15.66;100.00
14117;BME280;7137;51.436;6.544;2023-08-06T12:31:36;100243.06;;;15.80;100.00
14117;BME280;7137;51.436;6.544;2023-08-06T12:34:38;100231.78;;;15.92;100.00
14117;BME280;7137;51.436;6.544;2023-08-06T12:37:40;100235.34;;;15.91;100.00
14117;BME280;7137;51.436;6.544;2023-08-06T12:40:44;100233.25;;;16.11;100.00
14117;BME280;7137;51.436;6.544;2023-08-06T12:43:45;100232.78;;;16.18;100.00
14117;BME280;7137;51.436;6.544;2023-08-06T12:46:48;100230.69;;;16.38;100.00
14117;BME280;7137;51.436;6.544;2023-08-06T12:49:50;100240.59;;;16.20;100.00
14117;BME280;7137;51.436;6.544;2023-08-06T12:52:51;100229.50;;;15.86;100.00
14117;BME280;7137;51.436;6.544;2023-08-06T12:55:53;100239.38;;;15.83;100.00
14117;BME280;7137;51.436;6.544;2023-08-06T12:58:55;100248.22;;;15.82;100.00
14117;BME280;7137;51.436;6.544;2023-08-06T13:01:58;100247.56;;;15.78;100.00
14117;BME280;7137;51.436;6.544;2023-08-06T13:04:59;100259.22;;;15.74;100.00
14117;BME280;7137;51.436;6.544;2023-08-06T13:08:03;100276.34;;;15.67;100.00
14117;BME280;7137;51.436;6.544;2023-08-06T13:11:05;100274.03;;;15.61;100.00
14117;BME280;7137;51.436;6.544;2023-08-06T13:14:08;100276.03;;;15.71;100.00
14117;BME280;7137;51.436;6.544;2023-08-06T13:17:11;100291.56;;;15.76;100.00
14117;BME280;7137;51.436;6.544;2023-08-06T13:20:13;100283.50;;;15.79;100.00
14117;BME280;7137;51.436;6.544;2023-08-06T13:23:14;100293.44;;;15.74;100.00
14117;BME280;7137;51.436;6.544;2023-08-06T13:26:17;100292.59;;;15.73;100.00
14117;BME280;7137;51.436;6.544;2023-08-06T13:29:18;100295.91;;;15.77;100.00
14117;BME280;7137;51.436;6.544;2023-08-06T13:32:21;100296.84;;;15.76;100.00
14117;BME280;7137;51.436;6.544;2023-08-06T13:35:23;100303.63;;;15.80;100.00
14117;BME280;7137;51.436;6.544;2023-08-06T13:38:25;100311.50;;;15.66;100.00
14117;BME280;7137;51.436;6.544;2023-08-06T13:41:26;100312.44;;;15.65;100.00
14117;BME280;7137;51.436;6.544;2023-08-06T13:44:28;100317.34;;;15.71;100.00
14117;BME280;7137;51.436;6.544;2023-08-06T13:47:31;100318.41;;;15.83;100.00
14117;BME280;7137;51.436;6.544;2023-08-06T13:50:32;100327.56;;;15.61;100.00
14117;BME280;7137;51.436;6.544;2023-08-06T13:53:34;100310.84;;;15.62;100.00
14117;BME280;7137;51.436;6.544;2023-08-06T13:56:36;100321.75;;;15.70;100.00
14117;BME280;7137;51.436;6.544;2023-08-06T13:59:38;100328.38;;;15.78;100.00
14117;BME280;7137;51.436;6.544;2023-08-06T14:02:41;100329.78;;;15.83;100.00
14117;BME280;7137;51.436;6.544;2023-08-06T14:05:44;100337.91;;;15.94;100.00
14117;BME280;7137;51.436;6.544;2023-08-06T14:08:45;100346.56;;;15.96;100.00
14117;BME280;7137;51.436;6.544;2023-08-06T14:11:47;100352.13;;;16.06;100.00
14117;BME280;7137;51.436;6.544;2023-08-06T14:14:48;100351.81;;;15.96;100.00
14117;BME280;7137;51.436;6.544;2023-08-06T14:17:51;100359.94;;;16.08;100.00
14117;BME280;7137;51.436;6.544;2023-08-06T14:20:53;100360.88;;;16.07;100.00
14117;BME280;7137;51.436;6.544;2023-08-06T14:23:55;100368.13;;;16.17;100.00
14117;BME280;7137;51.436;6.544;2023-08-06T14:26:56;100372.09;;;16.10;100.00
14117;BME280;7137;51.436;6.544;2023-08-06T14:29:58;100372.44;;;16.04;100.00
14117;BME280;7137;51.436;6.544;2023-08-06T14:33:02;100382.69;;;15.94;100.00
14117;BME280;7137;51.436;6.544;2023-08-06T14:36:03;100380.69;;;15.84;100.00
14117;BME280;7137;51.436;6.544;2023-08-06T14:39:05;100382.09;;;15.89;100.00
14117;BME280;7137;51.436;6.544;2023-08-06T14:42:07;100383.63;;;15.93;100.00
14117;BME280;7137;51.436;6.544;2023-08-06T14:45:09;100374.97;;;15.91;100.00
14117;BME280;7137;51.436;6.544;2023-08-06T14:48:12;100383.50;;;15.81;100.00
14117;BME280;7137;51.436;6.544;2023-08-06T14:51:14;100385.91;;;15.69;100.00
14117;BME280;7137;51.436;6.544;2023-08-06T14:54:16;100393.91;;;15.68;100.00
14117;BME280;7137;51.436;6.544;2023-08-06T14:57:18;100394.78;;;15.83;100.00
14117;BME280;7137;51.436;6.544;2023-08-06T15:00:20;100407.69;;;15.87;100.00
14117;BME280;7137;51.436;6.544;2023-08-06T15:03:23;100406.03;;;16.00;100.00
14117;BME280;7137;51.436;6.544;2023-08-06T15:06:25;100397.06;;;15.89;100.00
14117;BME280;7137;51.436;6.544;2023-08-06T15:09:26;100415.34;;;15.92;100.00
14117;BME280;7137;51.436;6.544;2023-08-06T15:12:28;100410.75;;;16.10;100.00
14117;BME280;7137;51.436;6.544;2023-08-06T15:15:30;100420.72;;;16.04;100.00
14117;BME280;7137;51.436;6.544;2023-08-06T15:18:32;100412.47;;;16.11;100.00
14117;BME280;7137;51.436;6.544;2023-08-06T15:21:34;100431.78;;;16.25;100.00
14117;BME280;7137;51.436;6.544;2023-08-06T15:24:36;100432.47;;;16.43;100.00
14117;BME280;7137;51.436;6.544;2023-08-06T15:27:41;100437.28;;;16.51;100.00
14117;BME280;7137;51.436;6.544;2023-08-06T15:30:48;100435.69;;;16.48;100.00
14117;BME280;7137;51.436;6.544;2023-08-06T15:33:52;100451.78;;;16.58;100.00
14117;BME280;7137;51.436;6.544;2023-08-06T15:36:53;100459.44;;;16.62;100.00
14117;BME280;7137;51.436;6.544;2023-08-06T15:39:56;100461.03;;;16.51;100.00
14117;BME280;7137;51.436;6.544;2023-08-06T15:42:57;100462.38;;;16.28;100.00
14117;BME280;7137;51.436;6.544;2023-08-06T15:45:59;100469.06;;;16.19;100.00
14117;BME280;7137;51.436;6.544;2023-08-06T15:49:02;100474.06;;;16.24;100.00
14117;BME280;7137;51.436;6.544;2023-08-06T15:52:05;100473.06;;;16.41;100.00
14117;BME280;7137;51.436;6.544;2023-08-06T15:55:07;100486.69;;;16.33;100.00
14117;BME280;7137;51.436;6.544;2023-08-06T15:58:09;100491.69;;;16.38;100.00
14117;BME280;7137;51.436;6.544;2023-08-06T16:01:10;100486.16;;;16.12;100.00
14117;BME280;7137;51.436;6.544;2023-08-06T16:04:13;100489.00;;;15.93;100.00
14117;BME280;7137;51.436;6.544;2023-08-06T16:07:15;100486.53;;;16.06;100.00